Terminal Aerodrome Forecast
Issued by NWS Charleston, WV

Home | Current Version | Previous Version | Text Only | Print | Product List | Glossary On
Versions: 1 2 3 4 5 6 7 8 9 10 11 12 13 14 15 16 17 18 19 20 21 22 23
969
FTUS41 KRLX 241129 AAB
TAFPKB
TAF AMD
KPKB 241129Z 2411/2512 00000KT 5SM BR FEW200
     FM241300 VRB03KT P6SM SCT020 SCT200
     FM241500 23005KT P6SM SCT040 SCT150
     FM251000 00000KT 5SM BR BKN040=

USA.gov is the U.S. government's official web portal to all federal, state and local government web resources and services.